Time;durP1;ratioP1;P1;durP2;ratioP2;P2;SDS_P1;SDS_P2;PMS_P1;PMS_P2;Temp;Humidity;BMP_temperature;BMP_pressure;BME280_temperature;BME280_humidity;BME280_pressure;Samples;Min_cycle;Max_cycle;Signal;HPM_P1;HPM_P2
2022/05/29 00:01:14;;;;;;;4.90;1.70;;;8.10;99.90;;;;;;5059687;28;20037;-64
2022/05/29 00:03:42;;;;;;;;;;;8.00;99.90;;;;;;5062837;28;20450;-64
2022/05/29 00:06:11;;;;;;;1.88;1.30;;;7.80;99.90;;;;;;5051987;28;19921;-64
2022/05/29 00:08:40;;;;;;;3.28;1.38;;;7.80;99.90;;;;;;5056854;28;20109;-64
2022/05/29 00:11:10;;;;;;;5.28;1.35;;;7.70;99.90;;;;;;5066537;28;20047;-64
2022/05/29 00:13:36;;;;;;;3.22;1.20;;;7.70;99.90;;;;;;5051545;28;20448;-64
2022/05/29 00:16:03;;;;;;;4.90;1.25;;;7.70;99.90;;;;;;5051607;28;20045;-64
2022/05/29 00:18:31;;;;;;;4.07;1.60;;;7.70;99.90;;;;;;5055394;28;20040;-64
2022/05/29 00:21:00;;;;;;;4.65;1.60;;;7.60;99.90;;;;;;5071206;28;20036;-64
2022/05/29 00:23:28;;;;;;;4.38;1.40;;;7.20;99.90;;;;;;5071691;28;20040;-64
2022/05/29 00:25:55;;;;;;;6.47;1.73;;;7.50;99.90;;;;;;5071169;28;20101;-64
2022/05/29 00:28:22;;;;;;;2.70;1.60;;;7.50;99.90;;;;;;5071223;28;20040;-64
2022/05/29 00:30:50;;;;;;;3.17;1.48;;;7.50;99.90;;;;;;5052360;28;20057;-64
2022/05/29 00:33:17;;;;;;;8.15;1.60;;;7.50;99.90;;;;;;5051342;28;20087;-64
2022/05/29 00:35:44;;;;;;;3.50;1.50;;;7.50;99.90;;;;;;5069769;28;20051;-64
2022/05/29 00:38:13;;;;;;;3.15;1.42;;;7.60;99.90;;;;;;5070361;28;20052;-64
2022/05/29 00:40:46;;;;;;;2.97;1.17;;;7.50;99.90;;;;;;5061578;28;20049;-64
2022/05/29 00:43:13;;;;;;;6.05;1.63;;;7.50;99.90;;;;;;5051423;28;20102;-64
2022/05/29 00:45:49;;;;;;;2.40;1.33;;;7.40;99.90;;;;;;5051496;28;20072;-64
2022/05/29 00:48:18;;;;;;;5.10;1.38;;;7.40;99.90;;;;;;5063813;28;20051;-64
2022/05/29 00:50:46;;;;;;;5.68;1.20;;;7.30;99.90;;;;;;5060922;28;20056;-64
2022/05/29 00:53:14;;;;;;;4.70;1.15;;;7.30;99.90;;;;;;5051450;28;20041;-64
2022/05/29 00:55:45;;;;;;;4.28;1.35;;;7.20;99.90;;;;;;5051183;28;20037;-64
2022/05/29 00:58:11;;;;;;;4.10;1.10;;;7.20;99.90;;;;;;5066317;28;20036;-63
2022/05/29 01:00:39;;;;;;;2.67;1.00;;;7.20;99.90;;;;;;5053476;28;20094;-64
2022/05/29 01:03:06;;;;;;;2.72;1.30;;;7.20;99.90;;;;;;5051197;28;20375;-63
2022/05/29 01:05:36;;;;;;;2.67;1.75;;;7.10;99.90;;;;;;5051379;28;20056;-64
2022/05/29 01:08:15;;;;;;;4.72;1.23;;;7.10;99.90;;;;;;5065258;28;20566;-63
2022/05/29 01:11:02;;;;;;;5.18;1.23;;;7.00;99.90;;;;;;5067565;28;20102;-64
2022/05/29 01:13:56;;;;;;;3.00;1.13;;;7.00;99.90;;;;;;5070953;28;20032;-64
2022/05/29 01:16:35;;;;;;;4.57;1.20;;;7.00;99.90;;;;;;5062659;28;20058;-64
2022/05/29 01:19:22;;;;;;;2.67;1.08;;;7.00;99.90;;;;;;5063358;28;20041;-64
2022/05/29 01:22:03;;;;;;;2.83;1.23;;;7.00;99.90;;;;;;5070842;28;20382;-64
2022/05/29 01:25:07;;;;;;;4.00;1.35;;;7.00;99.90;;;;;;5062479;28;20052;-64
2022/05/29 01:28:04;;;;;;;1.98;1.05;;;7.00;99.90;;;;;;5067620;28;20061;-64
2022/05/29 01:30:38;;;;;;;3.05;1.00;;;7.00;99.90;;;;;;5065465;28;20439;-64
2022/05/29 01:33:10;;;;;;;3.53;0.93;;;6.90;99.90;;;;;;5067129;28;20094;-64
2022/05/29 01:35:52;;;;;;;2.67;1.17;;;6.90;99.90;;;;;;5071139;28;20628;-64
2022/05/29 01:38:26;;;;;;;2.85;1.02;;;7.00;99.90;;;;;;5073547;28;20043;-63
2022/05/29 01:41:17;;;;;;;2.65;1.10;;;7.00;99.90;;;;;;5071143;28;20041;-63
2022/05/29 01:44:26;;;;;;;4.40;0.80;;;7.00;99.90;;;;;;5072208;28;20139;-64
2022/05/29 01:47:00;;;;;;;8.30;1.20;;;7.00;99.90;;;;;;5042339;28;20052;-64
2022/05/29 01:49:34;;;;;;;3.25;1.30;;;7.00;99.90;;;;;;5071108;28;20045;-64
2022/05/29 01:52:17;;;;;;;2.75;1.10;;;6.90;99.90;;;;;;5065887;28;20078;-64
2022/05/29 01:54:52;;;;;;;3.15;1.30;;;6.80;99.90;;;;;;5073867;28;20230;-64
2022/05/29 01:57:51;;;;;;;1.98;1.20;;;6.70;99.90;;;;;;5072946;28;20407;-64
2022/05/29 02:00:21;;;;;;;1.75;1.00;;;6.70;99.90;;;;;;5051697;28;20562;-64
2022/05/29 02:02:57;;;;;;;4.20;1.48;;;6.60;99.90;;;;;;5074400;28;20385;-64
2022/05/29 02:05:32;;;;;;;9.00;1.90;;;6.60;99.90;;;;;;5073600;28;20029;-63
2022/05/29 02:08:10;;;;;;;4.28;1.50;;;6.50;99.90;;;;;;5065883;28;20044;-64
2022/05/29 02:10:43;;;;;;;8.40;1.42;;;6.50;99.90;;;;;;5070640;28;20040;-64
2022/05/29 02:13:39;;;;;;;6.72;1.30;;;6.60;99.90;;;;;;5073752;28;20086;-64
2022/05/29 02:16:11;;;;;;;2.83;1.50;;;6.60;99.90;;;;;;5051594;28;20063;-64
2022/05/29 02:19:06;;;;;;;3.55;1.02;;;6.50;99.90;;;;;;5073197;28;20504;-64
2022/05/29 02:21:55;;;;;;;3.50;1.10;;;6.50;99.90;;;;;;5056474;28;20041;-64
2022/05/29 02:24:29;;;;;;;6.68;1.55;;;6.50;99.90;;;;;;5053186;28;20045;-64
2022/05/29 02:27:03;;;;;;;2.17;1.10;;;6.40;99.90;;;;;;5065579;28;20455;-64
2022/05/29 02:29:30;;;;;;;2.67;1.33;;;6.40;99.90;;;;;;5057590;28;20493;-64
2022/05/29 02:32:16;;;;;;;7.47;1.30;;;6.40;99.90;;;;;;5053033;28;20056;-62
2022/05/29 02:34:52;;;;;;;4.68;1.27;;;6.50;99.90;;;;;;5064625;28;20048;-64
2022/05/29 02:37:26;;;;;;;5.30;1.60;;;6.50;99.90;;;;;;5058503;28;20052;-64
2022/05/29 02:40:08;;;;;;;3.75;1.40;;;6.60;99.90;;;;;;5053185;28;20049;-63
2022/05/29 02:42:44;;;;;;;1.92;1.00;;;6.60;99.90;;;;;;5058892;28;20074;-64
2022/05/29 02:45:25;;;;;;;3.83;1.13;;;6.50;99.90;;;;;;5068007;28;20091;-64
2022/05/29 02:48:17;;;;;;;3.03;1.20;;;6.60;99.90;;;;;;5053413;28;20493;-63
2022/05/29 02:51:08;;;;;;;7.25;1.30;;;6.60;99.90;;;;;;5052763;28;20044;-64
2022/05/29 02:53:35;;;;;;;4.68;1.38;;;6.60;99.90;;;;;;5069412;28;20044;-64
2022/05/29 02:56:05;;;;;;;4.93;1.60;;;6.60;99.90;;;;;;5053226;28;20044;-63
2022/05/29 02:58:34;;;;;;;3.10;1.40;;;6.60;99.90;;;;;;5053225;28;20607;-63
2022/05/29 03:01:04;;;;;;;5.85;1.63;;;6.50;99.90;;;;;;5065204;28;20062;-63
2022/05/29 03:04:07;;;;;;;7.78;1.48;;;6.00;99.90;;;;;;5056661;28;20417;-63
2022/05/29 03:06:58;;;;;;;9.18;1.50;;;6.30;99.90;;;;;;5033497;28;20052;-64
2022/05/29 03:09:44;;;;;;;8.95;2.20;;;6.20;99.90;;;;;;5060700;28;20724;-63
2022/05/29 03:12:15;;;;;;;5.97;1.95;;;6.20;99.90;;;;;;5066178;28;20048;-63
2022/05/29 03:14:49;;;;;;;7.30;2.10;;;6.20;99.90;;;;;;5072884;28;20058;-63
2022/05/29 03:17:40;;;;;;;5.38;2.30;;;6.20;99.90;;;;;;5072682;28;20074;-64
2022/05/29 03:20:25;;;;;;;5.13;2.13;;;6.20;99.90;;;;;;5065153;28;20037;-63
2022/05/29 03:23:30;;;;;;;6.88;2.25;;;6.30;99.90;;;;;;5072700;28;20044;-63
2022/05/29 03:26:12;;;;;;;3.20;1.75;;;6.30;99.90;;;;;;5071820;28;20053;-63
2022/05/29 03:28:56;;;;;;;4.55;1.58;;;6.40;99.90;;;;;;5069202;28;20057;-64
2022/05/29 03:31:27;;;;;;;6.63;2.67;;;6.40;99.90;;;;;;5052443;28;20044;-63
2022/05/29 03:33:56;;;;;;;5.95;2.28;;;6.50;99.90;;;;;;5052639;28;20040;-63
2022/05/29 03:36:25;;;;;;;6.07;2.05;;;6.60;99.90;;;;;;5068151;28;20036;-63
2022/05/29 03:38:52;;;;;;;3.83;1.90;;;6.70;99.90;;;;;;5061317;28;20049;-63
2022/05/29 03:41:27;;;;;;;4.20;2.15;;;6.70;99.90;;;;;;5052180;28;20037;-63
2022/05/29 03:43:54;;;;;;;3.38;1.77;;;6.80;99.90;;;;;;5056492;28;20470;-63
2022/05/29 03:46:21;;;;;;;5.03;1.85;;;6.80;99.90;;;;;;5065523;28;20448;-65
2022/05/29 03:48:47;;;;;;;4.88;2.03;;;6.80;99.90;;;;;;5052228;28;20056;-63
2022/05/29 03:51:14;;;;;;;5.18;1.83;;;6.80;99.90;;;;;;5050787;28;20391;-63
2022/05/29 03:53:41;;;;;;;3.00;1.67;;;6.80;99.90;;;;;;5061937;28;20047;-63
2022/05/29 03:56:08;;;;;;;4.45;1.42;;;6.80;99.90;;;;;;5058902;28;20508;-63
2022/05/29 03:58:35;;;;;;;5.17;1.63;;;6.80;99.90;;;;;;5051998;28;20072;-64
2022/05/29 04:01:02;;;;;;;4.93;1.33;;;6.20;99.90;;;;;;5053755;28;20356;-63
2022/05/29 04:03:29;;;;;;;5.28;1.50;;;6.80;99.90;;;;;;5071931;28;20044;-63
2022/05/29 04:05:56;;;;;;;6.07;1.60;;;6.90;99.90;;;;;;5052243;28;20045;-63
2022/05/29 04:13:54;;;;;;;5.43;1.48;;;7.00;99.90;;;;;;5060612;28;20040;-63
2022/05/29 04:16:21;;;;;;;4.43;1.75;;;6.90;99.90;;;;;;5051974;28;20048;-63
2022/05/29 04:18:48;;;;;;;4.63;1.80;;;6.90;99.90;;;;;;5052464;28;20063;-63
2022/05/29 04:21:15;;;;;;;4.20;1.67;;;6.90;99.90;;;;;;5065509;28;20032;-63
2022/05/29 04:23:42;;;;;;;;;;;6.90;99.90;;;;;;5053769;28;20052;-64
2022/05/29 04:26:13;;;;;;;7.78;1.60;;;6.90;99.90;;;;;;5051794;28;19921;-64
2022/05/29 04:28:40;;;;;;;3.10;2.03;;;7.00;99.90;;;;;;5066798;28;20052;-63
2022/05/29 04:31:07;;;;;;;;;;;7.00;99.90;;;;;;5058523;28;20049;-61
2022/05/29 04:33:34;;;;;;;7.82;1.80;;;7.00;99.90;;;;;;5051203;28;19924;-64
2022/05/29 04:36:01;;;;;;;5.95;1.70;;;7.00;99.90;;;;;;5051627;28;20041;-64
2022/05/29 04:38:28;;;;;;;6.47;1.70;;;7.00;99.90;;;;;;5069250;28;20048;-64
2022/05/29 04:40:55;;;;;;;3.45;1.58;;;7.10;99.90;;;;;;5051541;28;20056;-64
2022/05/29 04:43:23;;;;;;;6.15;1.60;;;7.00;99.90;;;;;;5051200;28;20114;-63
2022/05/29 04:45:55;;;;;;;4.13;1.48;;;7.10;99.90;;;;;;5051913;28;20051;-64
2022/05/29 04:48:22;;;;;;;26.35;7.68;;;7.10;99.90;;;;;;5066482;28;20059;-64
2022/05/29 04:50:56;;;;;;;8.63;3.45;;;7.20;99.90;;;;;;5051824;28;20045;-64
2022/05/29 04:53:23;;;;;;;5.78;2.08;;;7.30;99.90;;;;;;5051420;28;20103;-64
2022/05/29 04:55:53;;;;;;;5.30;1.77;;;7.30;99.90;;;;;;5065086;28;20037;-64
2022/05/29 04:58:20;;;;;;;7.00;1.27;;;7.40;99.90;;;;;;5056500;28;20443;-64
2022/05/29 05:00:47;;;;;;;8.32;1.98;;;7.50;99.90;;;;;;5050957;28;20041;-64
2022/05/29 05:03:14;;;;;;;1.98;1.20;;;7.60;99.90;;;;;;5051187;28;20037;-64
2022/05/29 05:05:41;;;;;;;3.60;1.52;;;7.70;99.90;;;;;;5071591;28;20044;-64
2022/05/29 05:08:08;;;;;;;4.43;1.92;;;7.80;99.90;;;;;;5062215;28;20098;-64
2022/05/29 05:10:34;;;;;;;2.22;1.10;;;7.80;99.90;;;;;;5054824;28;20056;-64
2022/05/29 05:13:01;;;;;;;2.33;1.07;;;7.90;99.90;;;;;;5070379;28;20040;-64
2022/05/29 05:15:33;;;;;;;3.38;1.92;;;7.90;99.90;;;;;;5058689;28;20048;-64
2022/05/29 05:18:00;;;;;;;4.15;1.60;;;8.00;99.90;;;;;;5055375;28;20046;-64
2022/05/29 05:20:27;;;;;;;4.60;1.73;;;8.10;99.90;;;;;;5060621;28;20040;-64
2022/05/29 05:22:53;;;;;;;2.47;1.17;;;8.10;99.90;;;;;;5071797;28;20059;-63
2022/05/29 05:25:20;;;;;;;3.05;1.23;;;8.20;99.90;;;;;;5055160;28;20094;-63
2022/05/29 05:27:47;;;;;;;5.97;1.23;;;8.20;99.90;;;;;;5055104;28;20053;-64
2022/05/29 05:30:13;;;;;;;6.13;1.50;;;8.30;99.90;;;;;;5063747;28;20090;-63
2022/05/29 05:32:40;;;;;;;4.07;1.63;;;8.40;99.90;;;;;;5091575;22;20037;-64
2022/05/29 05:35:11;;;;;;;3.88;1.60;;;8.40;99.90;;;;;;5072354;28;20041;-65
2022/05/29 05:37:39;;;;;;;5.15;1.73;;;8.40;99.90;;;;;;5074303;28;20048;-65
2022/05/29 05:40:10;;;;;;;4.85;1.63;;;8.50;99.90;;;;;;5074459;28;20045;-65
2022/05/29 05:42:37;;;;;;;2.50;1.40;;;8.60;99.90;;;;;;5074295;28;20044;-65
2022/05/29 05:45:07;;;;;;;2.75;1.35;;;8.70;99.90;;;;;;5074535;28;20066;-65
2022/05/29 05:47:34;;;;;;;4.35;1.30;;;8.80;99.90;;;;;;5073769;28;20439;-65
2022/05/29 05:50:01;;;;;;;2.45;1.52;;;8.80;99.90;;;;;;5081083;28;20093;-65
2022/05/29 05:52:27;;;;;;;4.25;1.70;;;8.80;99.90;;;;;;5082909;28;20086;-65
2022/05/29 05:54:54;;;;;;;4.10;1.63;;;8.80;99.90;;;;;;5074432;28;20036;-65
2022/05/29 05:57:21;;;;;;;2.87;1.27;;;8.80;99.90;;;;;;5074474;28;20109;-65
2022/05/29 05:59:47;;;;;;;6.38;1.70;;;8.70;99.90;;;;;;5074263;28;20286;-65
2022/05/29 06:02:14;;;;;;;2.80;1.52;;;8.80;99.90;;;;;;5064593;28;20036;-65
2022/05/29 06:04:42;;;;;;;2.80;1.90;;;8.80;99.90;;;;;;5074047;28;20508;-65
2022/05/29 06:07:10;;;;;;;4.72;2.10;;;8.90;99.90;;;;;;5074026;28;20049;-65
2022/05/29 06:09:37;;;;;;;6.85;1.58;;;9.00;99.90;;;;;;5074184;28;20440;-65
2022/05/29 06:12:07;;;;;;;3.90;1.30;;;9.20;99.90;;;;;;5072351;28;20040;-65
2022/05/29 06:14:35;;;;;;;6.10;1.60;;;9.20;99.90;;;;;;5073861;28;20121;-66
2022/05/29 06:17:03;;;;;;;2.38;1.35;;;9.40;99.90;;;;;;5073941;28;20086;-65
2022/05/29 06:19:30;;;;;;;2.55;1.33;;;9.20;99.90;;;;;;5066615;28;20033;-65
2022/05/29 06:21:57;;;;;;;4.63;1.67;;;9.20;99.90;;;;;;5073156;28;20029;-65
2022/05/29 06:24:24;;;;;;;3.28;1.23;;;9.20;99.90;;;;;;5073844;28;20052;-65
2022/05/29 06:26:50;;;;;;;3.00;1.45;;;9.20;99.90;;;;;;5070241;28;20115;-66
2022/05/29 06:29:18;;;;;;;5.80;1.83;;;9.20;99.90;;;;;;5073680;28;20102;-65
2022/05/29 06:31:45;;;;;;;3.30;1.70;;;9.20;99.90;;;;;;5073476;28;20401;-65
2022/05/29 06:34:12;;;;;;;5.25;1.75;;;9.20;99.90;;;;;;5072898;28;20090;-65
2022/05/29 06:36:40;;;;;;;1.97;1.27;;;9.20;99.90;;;;;;5066874;28;20501;-65
2022/05/29 06:39:06;;;;;;;4.10;1.70;;;9.20;99.90;;;;;;5068131;28;20359;-65
2022/05/29 06:41:34;;;;;;;5.13;1.42;;;9.20;99.90;;;;;;5070506;28;20052;-65
2022/05/29 06:44:01;;;;;;;3.53;1.63;;;9.30;99.90;;;;;;5073052;28;20041;-65
2022/05/29 06:46:28;;;;;;;4.60;1.90;;;9.20;99.90;;;;;;5073405;28;20101;-65
2022/05/29 06:48:54;;;;;;;7.30;1.80;;;9.20;99.90;;;;;;5073307;28;20040;-65
2022/05/29 06:51:22;;;;;;;6.40;1.80;;;9.20;99.90;;;;;;5065653;28;20493;-66
2022/05/29 06:53:50;;;;;;;9.82;2.33;;;9.30;99.90;;;;;;5073026;28;20048;-65
2022/05/29 06:56:18;;;;;;;5.22;1.98;;;9.30;99.90;;;;;;5073044;28;20052;-65
2022/05/29 06:58:46;;;;;;;6.65;2.88;;;9.40;99.90;;;;;;5071704;28;20504;-66
2022/05/29 07:07:01;;;;;;;4.38;1.80;;;10.10;99.90;;;;;;5055628;28;20382;-65
2022/05/29 07:09:28;;;;;;;3.03;1.77;;;10.20;99.90;;;;;;5072784;28;20029;-65
2022/05/29 07:12:02;;;;;;;2.33;1.52;;;10.20;99.90;;;;;;5072332;28;20040;-65
2022/05/29 07:14:29;;;;;;;5.65;1.67;;;10.10;99.90;;;;;;5072912;28;20504;-65
2022/05/29 07:16:56;;;;;;;3.25;1.70;;;10.10;99.90;;;;;;5068469;28;20082;-65
2022/05/29 07:19:25;;;;;;;5.57;1.90;;;10.00;99.90;;;;;;5072702;28;20044;-65
2022/05/29 07:21:57;;;;;;;4.75;1.88;;;10.00;99.90;;;;;;5072329;28;20040;-66
2022/05/29 07:24:28;;;;;;;4.05;2.00;;;10.00;99.90;;;;;;5071028;28;20045;-66
2022/05/29 07:26:55;;;;;;;6.40;1.60;;;10.10;99.90;;;;;;5072451;28;20048;-65
2022/05/29 07:29:22;;;;;;;5.65;1.88;;;10.10;99.90;;;;;;5071995;28;20044;-66
2022/05/29 07:31:51;;;;;;;2.58;1.45;;;10.00;99.90;;;;;;5072246;28;20090;-65
2022/05/29 07:34:18;;;;;;;11.23;2.28;;;10.00;99.90;;;;;;5052682;28;20453;-66
2022/05/29 07:36:45;;;;;;;4.75;1.88;;;10.00;99.90;;;;;;5068895;28;20044;-65
2022/05/29 07:39:12;;;;;;;4.18;2.00;;;10.00;99.90;;;;;;5071664;28;20090;-66
2022/05/29 07:44:24;;;;;;;8.50;1.92;;;10.30;99.90;;;;;;5069019;28;20040;-66
2022/05/29 07:46:51;;;;;;;4.50;2.35;;;10.50;99.90;;;;;;5070603;28;20044;-65
2022/05/29 07:49:18;;;;;;;5.22;2.20;;;10.60;99.90;;;;;;5071734;28;20037;-65
2022/05/29 07:51:45;;;;;;;3.88;2.25;;;10.60;99.90;;;;;;5071464;28;20047;-66
2022/05/29 07:54:11;;;;;;;4.13;1.90;;;10.70;99.90;;;;;;5069121;28;20097;-65
2022/05/29 07:56:38;;;;;;;4.20;2.20;;;10.90;99.90;;;;;;5071459;28;20347;-66
2022/05/29 07:59:05;;;;;;;9.43;2.85;;;11.10;99.90;;;;;;5071407;28;20033;-65
2022/05/29 08:01:32;;;;;;;4.85;2.17;;;11.40;99.90;;;;;;5071259;28;20040;-65
2022/05/29 08:03:59;;;;;;;6.15;2.30;;;11.50;99.90;;;;;;5070304;28;20044;-66
2022/05/29 08:06:26;;;;;;;6.10;2.03;;;11.60;99.90;;;;;;5071462;28;20044;-66
2022/05/29 08:08:53;;;;;;;5.40;2.20;;;11.80;99.90;;;;;;5052948;28;20044;-66
2022/05/29 08:11:20;;;;;;;4.82;1.90;;;11.90;99.90;;;;;;5069568;28;20052;-66
2022/05/29 08:13:47;;;;;;;6.43;1.92;;;12.00;99.90;;;;;;5071401;28;20396;-66
2022/05/29 08:16:16;;;;;;;9.48;2.10;;;12.00;99.90;;;;;;5071048;28;20043;-66
2022/05/29 08:18:44;;;;;;;4.07;1.85;;;12.00;99.90;;;;;;5069503;28;20423;-65
2022/05/29 08:21:11;;;;;;;;;;;12.00;99.90;;;;;;5068563;28;20053;-66
2022/05/29 08:23:38;;;;;;;3.00;1.58;;;12.20;99.90;;;;;;5052897;28;19974;-66
2022/05/29 08:31:35;;;;;;;5.57;1.63;;;12.10;99.90;;;;;;5069892;28;20048;-66
2022/05/29 08:34:02;;;;;;;5.40;1.70;;;12.00;99.90;;;;;;5070546;28;20041;-66
2022/05/29 08:36:29;;;;;;;3.03;1.75;;;11.90;99.90;;;;;;5070476;28;20041;-66
2022/05/29 08:38:56;;;;;;;2.63;1.73;;;11.90;99.90;;;;;;5067176;28;20463;-66
2022/05/29 08:41:34;;;;;;;5.38;2.00;;;11.80;99.90;;;;;;5070383;28;20060;-64
2022/05/29 08:44:09;;;;;;;9.15;2.00;;;11.70;99.90;;;;;;5068184;28;20064;-64
2022/05/29 08:46:39;;;;;;;5.70;1.88;;;11.60;99.90;;;;;;5068350;28;20135;-65
2022/05/29 08:49:10;;;;;;;7.13;2.10;;;11.50;99.90;;;;;;5052976;28;20421;-66
2022/05/29 08:52:00;;;;;;;4.30;2.20;;;11.30;99.90;;;;;;5070652;28;20110;-66
2022/05/29 08:54:56;;;;;;;2.72;1.88;;;11.10;99.90;;;;;;5053456;28;20147;-66
2022/05/29 08:57:32;;;;;;;4.68;1.90;;;10.90;99.90;;;;;;5067702;28;20416;-65
2022/05/29 09:00:12;;;;;;;6.65;2.30;;;10.90;99.90;;;;;;5062499;28;20452;-64
2022/05/29 09:03:29;;;;;;;4.13;2.70;;;10.90;99.90;;;;;;5050861;28;20049;-64
2022/05/29 09:06:12;;;;;;;9.68;2.90;;;11.00;99.90;;;;;;5025122;28;20053;-66
2022/05/29 09:08:55;;;;;;;4.18;2.25;;;11.20;99.90;;;;;;5068391;28;20049;-66
2022/05/29 09:11:29;;;;;;;6.13;2.50;;;11.20;99.90;;;;;;5052441;28;20044;-65
2022/05/29 09:14:07;;;;;;;4.57;2.13;;;11.30;99.90;;;;;;5071150;28;20063;-65
2022/05/29 09:16:47;;;;;;;8.77;2.42;;;11.40;99.90;;;;;;5062222;28;20158;-66
2022/05/29 09:19:29;;;;;;;4.95;2.65;;;11.40;99.90;;;;;;5070918;28;20101;-66
2022/05/29 09:22:03;;;;;;;4.75;2.15;;;11.50;99.90;;;;;;5070320;28;20102;-66
2022/05/29 09:24:59;;;;;;;4.82;2.08;;;11.40;99.90;;;;;;5064061;28;20044;-66
2022/05/29 09:27:26;;;;;;;6.93;2.92;;;11.20;99.90;;;;;;5035621;28;20057;-66
2022/05/29 09:29:53;;;;;;;6.38;2.60;;;11.20;99.90;;;;;;5070467;28;20048;-65
2022/05/29 09:32:25;;;;;;;8.23;3.58;;;11.20;99.90;;;;;;5063305;28;20684;-66
2022/05/29 09:35:04;;;;;;;10.75;2.83;;;11.20;99.90;;;;;;5069607;28;20044;-66
2022/05/29 09:37:46;;;;;;;3.85;2.92;;;11.40;99.90;;;;;;5052892;28;20423;-65
2022/05/29 09:40:21;;;;;;;5.28;2.60;;;11.40;99.90;;;;;;5066727;28;20102;-66
2022/05/29 09:42:48;;;;;;;4.80;2.65;;;11.50;99.90;;;;;;5069219;28;20055;-66
2022/05/29 09:45:26;;;;;;;7.10;3.50;;;11.70;99.90;;;;;;5070903;28;20048;-66
2022/05/29 09:50:52;;;;;;;8.95;2.65;;;11.80;99.90;;;;;;5062983;28;20092;-64
2022/05/29 09:53:29;;;;;;;3.88;2.40;;;11.70;99.90;;;;;;5074149;28;20044;-65
2022/05/29 09:56:01;;;;;;;4.50;2.37;;;12.00;99.90;;;;;;5073737;28;20048;-66
2022/05/29 09:58:39;;;;;;;8.18;2.42;;;12.20;99.90;;;;;;5066023;28;20301;-65
2022/05/29 10:01:08;;;;;;;4.68;2.72;;;12.30;99.90;;;;;;5066400;28;20074;-66
2022/05/29 10:03:42;;;;;;;5.95;2.42;;;12.40;99.90;;;;;;5073346;28;20499;-64
2022/05/29 10:06:27;;;;;;;3.97;2.10;;;12.40;99.90;;;;;;5072866;28;20090;-66
2022/05/29 10:09:08;;;;;;;4.05;2.03;;;12.30;99.90;;;;;;5074024;28;20045;-66
2022/05/29 10:11:35;;;;;;;4.03;1.83;;;12.30;99.90;;;;;;5073768;28;20049;-66
2022/05/29 10:14:19;;;;;;;3.85;1.38;;;12.20;99.90;;;;;;5071898;28;20094;-65
2022/05/29 10:16:49;;;;;;;4.28;1.73;;;12.00;99.90;;;;;;5073735;28;20045;-65
2022/05/29 10:19:44;;;;;;;7.35;1.80;;;11.70;99.90;;;;;;5073659;28;20037;-66
2022/05/29 10:22:29;;;;;;;3.17;1.60;;;11.70;99.90;;;;;;5069887;28;20059;-66
2022/05/29 10:24:57;;;;;;;4.60;1.83;;;11.70;99.90;;;;;;5073005;28;20746;-66
2022/05/29 10:27:50;;;;;;;;;;;11.70;99.90;;;;;;5074242;28;20106;-66
2022/05/29 10:30:28;;;;;;;4.38;1.55;;;11.70;99.90;;;;;;5070244;28;19920;-65
2022/05/29 10:33:07;;;;;;;2.22;1.38;;;11.60;99.90;;;;;;5072441;28;20484;-65
2022/05/29 10:35:39;;;;;;;4.50;1.38;;;11.40;99.90;;;;;;5073293;28;20098;-65
2022/05/29 10:38:19;;;;;;;3.15;1.60;;;11.30;99.90;;;;;;5072802;28;20041;-65
2022/05/29 10:40:49;;;;;;;2.28;1.30;;;11.10;99.90;;;;;;5071294;28;20041;-65
2022/05/29 10:43:45;;;;;;;6.05;1.85;;;11.00;99.90;;;;;;5073253;28;20485;-64
2022/05/29 10:46:26;;;;;;;6.50;2.65;;;10.80;99.90;;;;;;5073416;28;20059;-64
2022/05/29 10:49:14;;;;;;;4.95;2.55;;;10.80;99.90;;;;;;5064746;28;20072;-64
2022/05/29 10:52:18;;;;;;;5.25;2.70;;;10.90;99.90;;;;;;5055057;28;20513;-64
2022/05/29 10:55:22;;;;;;;5.55;2.53;;;11.00;99.90;;;;;;5073204;28;20056;-64
2022/05/29 10:58:20;;;;;;;3.83;2.35;;;11.00;99.90;;;;;;5071741;28;20048;-64
2022/05/29 11:03:17;;;;;;;7.80;3.35;;;10.80;99.90;;;;;;5072903;28;20444;-64
2022/05/29 11:04:12;;;;;;;4.13;2.20;;;10.80;99.90;;;;;;5070016;28;20043;-64
2022/05/29 11:06:56;;;;;;;3.83;2.25;;;10.80;99.90;;;;;;5072958;28;20042;-64
2022/05/29 11:09:51;;;;;;;5.03;2.13;;;10.70;99.90;;;;;;5072916;28;20041;-64
2022/05/29 11:12:51;;;;;;;4.20;1.95;;;10.70;99.90;;;;;;5067737;28;20098;-64
2022/05/29 11:15:43;;;;;;;2.20;1.58;;;10.70;99.90;;;;;;5072655;28;20048;-64
2022/05/29 11:18:36;;;;;;;3.97;1.80;;;10.60;99.90;;;;;;5072737;28;20120;-64
2022/05/29 11:21:17;;;;;;;3.50;1.25;;;10.60;99.90;;;;;;5071155;28;20039;-64
2022/05/29 11:24:13;;;;;;;8.27;2.00;;;10.60;99.90;;;;;;5072563;28;20055;-64
2022/05/29 11:26:58;;;;;;;4.63;1.95;;;10.40;99.90;;;;;;5072423;28;20083;-64
2022/05/29 11:29:33;;;;;;;5.05;1.70;;;10.50;99.90;;;;;;5053301;28;20048;-64
2022/05/29 11:32:50;;;;;;;3.05;2.03;;;10.50;99.90;;;;;;5067264;28;20385;-64
2022/05/29 11:35:31;;;;;;;3.47;1.60;;;10.70;99.90;;;;;;5078567;22;20054;-63
2022/05/29 11:38:22;;;;;;;2.50;1.50;;;10.80;99.90;;;;;;5054815;28;20048;-63
2022/05/29 11:40:54;;;;;;;3.78;1.63;;;10.90;99.90;;;;;;5070901;28;20055;-63
2022/05/29 11:43:50;;;;;;;4.22;1.70;;;11.00;99.90;;;;;;5058116;28;20402;-63
2022/05/29 11:52:45;;;;;;;3.75;2.10;;;10.90;99.90;;;;;;5031418;28;20494;-63
2022/05/29 11:55:22;;;;;;;4.35;1.75;;;10.70;99.90;;;;;;5025929;28;20053;-63
2022/05/29 11:57:55;;;;;;;6.32;1.95;;;10.60;99.90;;;;;;5031011;28;20464;-63
2022/05/29 12:00:43;;;;;;;10.93;2.35;;;10.50;99.90;;;;;;5031057;28;20033;-63
2022/05/29 12:03:19;;;;;;;;;;;10.60;99.90;;;;;;5026049;28;20053;-63
2022/05/29 12:06:13;;;;;;;5.93;2.38;;;10.70;99.90;;;;;;5031891;28;19951;-63
2022/05/29 12:08:53;;;;;;;2.70;1.73;;;10.60;99.90;;;;;;5031932;28;20115;-63
2022/05/29 12:11:32;;;;;;;6.80;3.00;;;10.50;99.90;;;;;;5026387;28;20091;-63
2022/05/29 12:14:05;;;;;;;4.93;2.20;;;10.30;99.90;;;;;;5011999;28;20050;-63
2022/05/29 12:16:34;;;;;;;3.63;1.92;;;10.30;99.90;;;;;;5012071;28;20104;-63
2022/05/29 12:19:08;;;;;;;3.20;1.98;;;10.40;99.90;;;;;;5025232;28;20041;-63
2022/05/29 12:21:45;;;;;;;2.75;1.83;;;10.40;99.90;;;;;;5031232;28;20520;-63
2022/05/29 12:24:17;;;;;;;3.58;2.08;;;10.50;99.90;;;;;;5031899;28;20182;-62
2022/05/29 12:26:55;;;;;;;5.90;2.42;;;10.50;99.90;;;;;;5031137;28;20041;-63
2022/05/29 12:29:31;;;;;;;3.70;2.22;;;10.40;99.90;;;;;;5031590;28;20406;-63
2022/05/29 12:32:17;;;;;;;6.03;1.80;;;10.70;99.90;;;;;;5030757;28;20103;-63
2022/05/29 12:35:03;;;;;;;4.07;1.55;;;10.90;99.90;;;;;;5031503;28;20049;-63
2022/05/29 12:37:41;;;;;;;4.13;1.95;;;11.00;99.90;;;;;;5027549;28;20044;-63
2022/05/29 12:40:36;;;;;;;5.07;1.90;;;11.00;99.90;;;;;;5024805;28;20120;-63
2022/05/29 12:43:37;;;;;;;4.80;1.92;;;10.90;99.90;;;;;;5011549;28;20054;-63
2022/05/29 12:46:30;;;;;;;5.47;2.40;;;10.90;99.90;;;;;;5011574;28;20125;-63
2022/05/29 12:49:12;;;;;;;4.40;2.20;;;11.10;99.90;;;;;;5024804;28;20398;-63
2022/05/29 12:51:39;;;;;;;2.42;1.70;;;11.10;99.90;;;;;;5029625;28;20049;-64
2022/05/29 12:54:40;;;;;;;9.23;3.17;;;11.20;99.90;;;;;;5012530;28;20119;-63
2022/05/29 12:57:42;;;;;;;3.50;1.92;;;11.10;99.90;;;;;;5028286;28;20042;-63
2022/05/29 13:00:35;;;;;;;2.80;1.95;;;11.20;99.90;;;;;;5018538;28;20044;-63
2022/05/29 13:03:20;;;;;;;3.10;1.40;;;11.40;99.90;;;;;;5030866;28;20490;-64
2022/05/29 13:06:21;;;;;;;2.08;1.30;;;11.50;99.90;;;;;;5025247;28;20049;-63
2022/05/29 13:09:38;;;;;;;1.75;1.40;;;11.50;99.90;;;;;;5030036;28;20041;-64
2022/05/29 13:12:12;;;;;;;4.18;1.40;;;11.60;99.90;;;;;;4996183;28;20099;-64
2022/05/29 13:14:50;;;;;;;4.03;2.25;;;11.60;99.90;;;;;;5026889;28;20037;-64
2022/05/29 13:17:22;;;;;;;;;;;11.60;99.90;;;;;;5030043;28;20061;-64
2022/05/29 13:19:58;;;;;;;2.58;1.48;;;11.80;99.90;;;;;;5027031;28;19929;-64
2022/05/29 13:22:48;;;;;;;5.05;1.48;;;12.10;99.90;;;;;;5029945;28;20100;-64
2022/05/29 13:25:17;;;;;;;5.15;1.30;;;12.50;99.90;;;;;;5026971;28;20034;-64
2022/05/29 13:27:44;;;;;;;2.22;1.58;;;12.60;99.90;;;;;;5034752;28;20060;-64
2022/05/29 13:30:41;;;;;;;4.55;1.20;;;12.60;99.90;;;;;;5029274;28;20045;-64
2022/05/29 13:33:26;;;;;;;4.20;1.65;;;12.60;99.90;;;;;;5034520;28;20037;-63
2022/05/29 13:35:54;;;;;;;5.90;2.90;;;12.60;99.90;;;;;;5029315;28;20038;-64
2022/05/29 13:38:45;;;;;;;3.83;2.15;;;12.60;99.90;;;;;;5034721;28;20038;-64
2022/05/29 13:41:30;;;;;;;3.08;1.50;;;12.40;99.90;;;;;;5033719;28;20045;-64
2022/05/29 13:44:17;;;;;;;4.05;1.33;;;12.40;99.90;;;;;;5033159;28;20095;-63
2022/05/29 13:46:44;;;;;;;7.78;4.40;;;12.40;99.90;;;;;;5033204;28;20050;-64
2022/05/29 13:49:14;;;;;;;4.38;2.22;;;12.70;99.90;;;;;;5031499;28;20055;-64
2022/05/29 13:51:42;;;;;;;4.82;2.10;;;13.10;99.90;;;;;;5033016;28;20080;-64
2022/05/29 13:54:21;;;;;;;4.88;2.75;;;13.40;99.90;;;;;;5013630;28;20091;-64
2022/05/29 13:57:08;;;;;;;2.10;1.40;;;13.40;99.90;;;;;;5033703;28;20383;-64
2022/05/29 14:05:41;;;;;;;3.35;2.05;;;12.70;99.90;;;;;;5028042;28;20130;-64
2022/05/29 14:08:17;;;;;;;2.42;1.30;;;12.80;99.90;;;;;;5014859;28;20049;-64
2022/05/29 14:10:58;;;;;;;8.68;4.60;;;13.10;99.90;;;;;;5028123;28;20502;-64